Time;durP1;ratioP1;P1;durP2;ratioP2;P2;SDS_P1;SDS_P2;PMS_P1;PMS_P2;Temp;Humidity;BMP_temperature;BMP_pressure;BME280_temperature;BME280_humidity;BME280_pressure;Samples;Min_cycle;Max_cycle;Signal;HPM_P1;HPM_P2
2022/12/31 00:00:09;;;;;;;7.83;3.17;;;12.70;83.20;12.80;96395.00;;;;5075686;28;20219;-88
2022/12/31 00:02:36;;;;;;;11.10;3.10;;;12.70;83.20;12.80;96391.00;;;;5075531;28;20281;-89
2022/12/31 00:05:06;;;;;;;9.83;3.03;;;12.70;83.30;12.90;96388.00;;;;5075326;28;20219;-89
2022/12/31 00:07:35;;;;;;;7.53;3.17;;;12.70;83.30;12.90;96388.00;;;;5074915;28;20220;-88
2022/12/31 00:10:03;;;;;;;4.10;2.80;;;12.70;83.40;12.90;96393.00;;;;5072126;28;20215;-89
2022/12/31 00:12:30;;;;;;;3.20;2.93;;;12.70;83.50;12.90;96387.00;;;;5074980;28;20622;-88
2022/12/31 00:14:58;;;;;;;7.73;3.17;;;12.70;83.60;12.90;96391.00;;;;5075020;28;20219;-89
2022/12/31 00:17:25;;;;;;;5.33;2.60;;;12.70;83.60;12.90;96394.00;;;;5075159;28;20696;-88
2022/12/31 00:19:52;;;;;;;2.60;2.40;;;12.80;83.70;13.00;96385.00;;;;5075247;28;20766;-89
2022/12/31 00:22:21;;;;;;;2.40;2.20;;;12.80;83.80;13.00;96386.00;;;;5076385;28;20207;-89
2022/12/31 00:24:48;;;;;;;1.80;1.70;;;12.80;84.10;13.10;96365.00;;;;5072258;28;20204;-89
2022/12/31 00:27:16;;;;;;;1.97;1.77;;;12.90;84.30;13.10;96375.00;;;;5074875;28;20192;-88
2022/12/31 00:29:43;;;;;;;2.73;1.40;;;12.90;84.40;13.20;96371.00;;;;5075304;28;20250;-89
2022/12/31 00:32:10;;;;;;;1.97;1.17;;;13.00;84.70;13.20;96373.00;;;;5076004;28;20208;-88
2022/12/31 00:34:38;;;;;;;0.80;0.80;;;13.00;84.70;13.30;96380.00;;;;5075437;28;20212;-89
2022/12/31 00:37:05;;;;;;;1.43;0.87;;;13.10;84.70;13.30;96378.00;;;;5075440;28;20235;-88
2022/12/31 00:39:34;;;;;;;0.80;0.80;;;13.10;84.70;13.40;96391.00;;;;5075192;28;20281;-89
2022/12/31 00:42:01;;;;;;;0.67;0.60;;;13.20;84.80;13.50;96394.00;;;;5075749;28;20234;-88
2022/12/31 00:44:31;;;;;;;0.40;0.40;;;13.30;84.90;13.50;96387.00;;;;5075608;28;20203;-89
2022/12/31 00:46:58;;;;;;;0.30;0.30;;;13.30;84.80;13.60;96398.00;;;;5075233;28;20200;-89
2022/12/31 00:49:25;;;;;;;0.40;0.37;;;13.40;84.90;13.70;96395.00;;;;5075641;28;20230;-89
2022/12/31 00:51:53;;;;;;;0.40;0.40;;;13.50;84.90;13.80;96402.00;;;;5075026;28;20192;-89
2022/12/31 00:54:20;;;;;;;0.40;0.30;;;13.50;84.80;13.80;96404.00;;;;5075873;28;20269;-89
2022/12/31 00:56:49;;;;;;;0.83;0.70;;;13.60;84.60;13.90;96408.00;;;;5075826;28;20224;-89
2022/12/31 00:59:17;;;;;;;0.73;0.40;;;13.70;84.40;13.90;96412.00;;;;5075694;28;20293;-89
2022/12/31 01:01:45;;;;;;;0.70;0.30;;;13.70;84.40;13.90;96409.00;;;;5074595;28;20273;-89
2022/12/31 01:04:16;;;;;;;0.30;0.30;;;13.70;84.20;13.90;96422.00;;;;5074351;28;20296;-88
2022/12/31 01:06:44;;;;;;;0.20;0.20;;;13.80;84.20;13.90;96415.00;;;;5071058;28;20253;-88
2022/12/31 01:09:13;;;;;;;0.30;0.20;;;13.80;84.10;14.00;96419.00;;;;5074514;28;20220;-89
2022/12/31 01:11:41;;;;;;;0.23;0.10;;;13.80;84.10;14.00;96416.00;;;;5074399;28;20203;-89
2022/12/31 01:14:13;;;;;;;0.70;0.23;;;13.90;84.10;14.00;96419.00;;;;5074318;28;20549;-89
2022/12/31 01:16:44;;;;;;;0.23;0.20;;;13.90;83.90;14.10;96408.00;;;;5074187;28;20211;-89
2022/12/31 01:19:15;;;;;;;0.27;0.20;;;13.90;83.90;14.10;96426.00;;;;5073936;28;20225;-88
2022/12/31 01:21:44;;;;;;;0.20;0.20;;;14.00;83.80;14.20;96446.00;;;;5075377;28;20199;-89
2022/12/31 01:24:13;;;;;;;1.57;0.30;;;14.00;83.90;14.20;96450.00;;;;5074805;28;20203;-89
2022/12/31 01:26:41;;;;;;;0.10;0.10;;;14.10;84.10;14.30;96457.00;;;;5073818;28;20196;-89
2022/12/31 01:29:11;;;;;;;0.10;0.00;;;14.10;84.20;14.30;96450.00;;;;5075280;28;20220;-89
2022/12/31 01:31:40;;;;;;;0.27;0.10;;;14.20;84.30;14.50;96463.00;;;;5075418;28;20545;-88
2022/12/31 01:34:08;;;;;;;0.00;0.00;;;14.20;84.40;14.50;96470.00;;;;5074378;28;20200;-90
2022/12/31 01:36:37;;;;;;;0.87;0.13;;;14.30;84.40;14.60;96471.00;;;;5074236;28;20207;-89
2022/12/31 01:39:07;;;;;;;0.30;0.30;;;14.40;84.50;14.70;96484.00;;;;5074261;28;20220;-88
2022/12/31 01:41:38;;;;;;;0.40;0.10;;;14.50;84.40;14.80;96487.00;;;;5074112;28;20661;-88
2022/12/31 01:44:54;;;;;;;0.10;0.10;;;14.60;84.30;14.90;96478.00;;;;5073858;28;20219;-90
2022/12/31 01:47:35;;;;;;;0.77;0.20;;;14.70;83.60;15.10;96480.00;;;;5073788;28;20249;-88
2022/12/31 01:50:11;;;;;;;1.33;0.20;;;14.80;83.90;15.10;96477.00;;;;5072401;28;20288;-89
2022/12/31 01:52:44;;;;;;;0.07;0.00;;;14.90;83.70;15.20;96478.00;;;;5074764;28;20265;-89
2022/12/31 01:55:19;;;;;;;0.10;0.10;;;15.00;83.60;15.30;96477.00;;;;5073903;28;20273;-89
2022/12/31 01:57:52;;;;;;;3.60;0.33;;;15.10;83.40;15.40;96489.00;;;;5074083;28;20255;-89
2022/12/31 02:00:21;;;;;;;0.30;0.10;;;15.20;83.40;15.50;96497.00;;;;5074085;28;20634;-89
2022/12/31 02:02:49;;;;;;;0.00;0.00;;;15.20;83.10;15.60;96497.00;;;;5074526;28;20203;-89
2022/12/31 02:05:25;;;;;;;0.13;0.10;;;15.30;82.80;15.60;96498.00;;;;5074306;28;20263;-89
2022/12/31 02:07:54;;;;;;;0.60;0.10;;;15.40;82.50;15.70;96504.00;;;;5074204;28;20200;-89
2022/12/31 02:10:22;;;;;;;0.10;0.10;;;15.50;82.60;15.80;96500.00;;;;5074112;28;20222;-88
2022/12/31 02:12:50;;;;;;;2.63;0.20;;;15.50;82.40;15.90;96496.00;;;;5074078;28;20207;-88
2022/12/31 02:15:26;;;;;;;0.00;0.00;;;15.60;82.30;16.00;96496.00;;;;5074061;28;20207;-89
2022/12/31 02:18:06;;;;;;;0.10;0.10;;;15.70;82.10;16.00;96490.00;;;;5074134;28;20212;-89
2022/12/31 02:21:03;;;;;;;0.20;0.10;;;15.80;81.40;16.10;96498.00;;;;5074518;28;20220;-88
2022/12/31 02:24:10;;;;;;;0.20;0.13;;;15.90;80.80;16.20;96495.00;;;;5074885;28;20208;-88
2022/12/31 02:26:56;;;;;;;0.30;0.10;;;15.90;80.80;16.20;96496.00;;;;5074265;28;20660;-88
2022/12/31 02:30:11;;;;;;;0.10;0.10;;;16.00;80.50;16.30;96494.00;;;;5073669;28;20269;-88
2022/12/31 02:32:57;;;;;;;0.67;0.17;;;16.10;79.30;16.30;96503.00;;;;5074108;28;20200;-88
2022/12/31 02:35:31;;;;;;;0.10;0.10;;;16.10;79.80;16.40;96494.00;;;;5073569;28;20254;-89
2022/12/31 02:38:07;;;;;;;0.10;0.10;;;16.20;80.10;16.40;96494.00;;;;5074188;28;20253;-88
2022/12/31 02:40:38;;;;;;;0.30;0.10;;;16.20;80.70;16.50;96496.00;;;;5073882;28;20641;-88
2022/12/31 02:43:06;;;;;;;0.10;0.10;;;16.30;79.90;16.50;96497.00;;;;5074005;28;20208;-88
2022/12/31 02:45:39;;;;;;;0.10;0.10;;;16.30;79.80;16.60;96512.00;;;;5074131;28;20253;-88
2022/12/31 02:48:29;;;;;;;0.10;0.10;;;16.30;79.40;16.60;96508.00;;;;5073609;28;20275;-88
2022/12/31 02:51:12;;;;;;;1.67;0.20;;;16.40;78.90;16.70;96506.00;;;;5073873;28;20602;-89
2022/12/31 02:54:27;;;;;;;1.67;0.23;;;16.40;79.10;16.70;96509.00;;;;5073278;28;20181;-89
2022/12/31 02:57:09;;;;;;;1.20;0.20;;;16.50;78.40;16.70;96507.00;;;;5056819;28;20200;-88
2022/12/31 03:02:38;;;;;;;0.57;0.10;;;16.60;78.60;16.80;96501.00;;;;5073584;28;20226;-88
2022/12/31 03:05:07;;;;;;;0.10;0.10;;;16.60;78.60;16.80;96503.00;;;;5073550;28;20245;-89
2022/12/31 03:07:35;;;;;;;0.10;0.10;;;16.60;78.40;16.80;96505.00;;;;5073573;28;20208;-89
2022/12/31 03:10:03;;;;;;;0.10;0.00;;;16.60;78.20;16.90;96511.00;;;;5072988;28;20285;-88
2022/12/31 03:12:48;;;;;;;0.10;0.10;;;16.70;78.20;16.90;96519.00;;;;5073401;28;20204;-89
2022/12/31 03:15:22;;;;;;;4.90;0.20;;;16.70;77.80;16.90;96522.00;;;;5073227;28;20580;-88
2022/12/31 03:17:58;;;;;;;0.40;0.10;;;16.70;78.00;16.90;96523.00;;;;5072908;28;20641;-89
2022/12/31 03:23:21;;;;;;;4.13;0.10;;;16.80;77.60;17.00;96531.00;;;;5073154;28;20293;-88
2022/12/31 03:25:48;;;;;;;0.10;0.10;;;16.80;77.70;17.00;96529.00;;;;5073034;28;20207;-88
2022/12/31 03:28:18;;;;;;;0.10;0.10;;;16.80;77.70;17.10;96528.00;;;;5073178;28;20200;-88
2022/12/31 03:30:50;;;;;;;0.33;0.10;;;16.80;77.40;17.10;96540.00;;;;5073164;28;20191;-88
2022/12/31 03:33:20;;;;;;;1.13;0.10;;;16.80;77.30;17.10;96546.00;;;;5072938;28;20203;-88
2022/12/31 03:35:49;;;;;;;0.10;0.10;;;16.90;77.20;17.10;96543.00;;;;5072830;28;20199;-89
2022/12/31 03:38:18;;;;;;;0.70;0.20;;;16.90;77.10;17.20;96543.00;;;;5073776;28;20277;-88
2022/12/31 03:40:49;;;;;;;0.00;0.00;;;17.00;77.10;17.20;96537.00;;;;5073961;28;20608;-88
2022/12/31 03:43:18;;;;;;;0.10;0.03;;;17.00;77.00;17.30;96544.00;;;;5073700;28;20317;-88
2022/12/31 03:45:47;;;;;;;0.20;0.20;;;17.00;77.00;17.30;96549.00;;;;5073742;28;20208;-88
2022/12/31 03:48:15;;;;;;;0.53;0.00;;;17.00;76.70;17.30;96560.00;;;;5073689;28;20295;-88
2022/12/31 03:50:44;;;;;;;0.77;0.20;;;17.00;76.40;17.30;96560.00;;;;5073536;28;20200;-88
2022/12/31 03:53:11;;;;;;;0.10;0.10;;;17.10;76.40;17.30;96555.00;;;;5073637;28;20649;-88
2022/12/31 03:55:39;;;;;;;0.40;0.33;;;17.10;76.20;17.30;96565.00;;;;5073437;28;20312;-88
2022/12/31 03:58:06;;;;;;;0.20;0.20;;;17.10;76.00;17.30;96557.00;;;;5073240;28;20563;-88
2022/12/31 04:00:34;;;;;;;0.10;0.10;;;17.10;75.90;17.30;96562.00;;;;5073297;28;20224;-88
2022/12/31 04:03:01;;;;;;;0.40;0.10;;;17.10;75.80;17.30;96565.00;;;;5073250;28;20576;-88
2022/12/31 04:05:29;;;;;;;0.10;0.10;;;17.10;75.80;17.40;96571.00;;;;5073337;28;20211;-88
2022/12/31 04:07:58;;;;;;;3.13;0.20;;;17.10;75.70;17.40;96573.00;;;;5073159;28;20204;-88
2022/12/31 04:10:26;;;;;;;0.00;0.00;;;17.10;75.60;17.40;96562.00;;;;5073360;28;20243;-88
2022/12/31 04:12:54;;;;;;;0.00;0.00;;;17.10;75.50;17.40;96571.00;;;;5073545;28;20279;-89
2022/12/31 04:15:22;;;;;;;0.00;0.00;;;17.10;75.50;17.40;96565.00;;;;5073270;28;20219;-89
2022/12/31 04:17:49;;;;;;;0.23;0.10;;;17.10;75.50;17.40;96579.00;;;;5072245;28;20231;-88
2022/12/31 04:20:17;;;;;;;0.13;0.10;;;17.10;75.50;17.50;96578.00;;;;5072985;28;20227;-88
2022/12/31 04:22:45;;;;;;;5.20;0.80;;;17.20;75.60;17.50;96578.00;;;;5075415;28;20204;-89
2022/12/31 04:25:14;;;;;;;3.13;0.20;;;17.20;75.50;17.40;96574.00;;;;5076158;28;20202;-88
2022/12/31 04:27:43;;;;;;;1.30;0.30;;;17.20;75.50;17.50;96586.00;;;;5076942;28;20204;-89
2022/12/31 04:30:13;;;;;;;0.20;0.13;;;17.20;75.60;17.50;96587.00;;;;5076963;28;20231;-88
2022/12/31 04:32:41;;;;;;;0.10;0.10;;;17.20;75.30;17.40;96585.00;;;;5076505;28;20199;-88
2022/12/31 04:35:11;;;;;;;0.40;0.10;;;17.20;75.40;17.50;96585.00;;;;5076298;28;20207;-88
2022/12/31 04:37:38;;;;;;;0.00;0.00;;;17.20;75.30;17.50;96576.00;;;;5076410;28;20270;-88
2022/12/31 04:40:08;;;;;;;0.00;0.00;;;17.20;75.50;17.50;96595.00;;;;5076336;28;20220;-89
2022/12/31 04:42:37;;;;;;;0.33;0.10;;;17.20;75.30;17.50;96592.00;;;;5076893;28;20253;-88
2022/12/31 04:45:06;;;;;;;0.23;0.20;;;17.20;75.20;17.50;96593.00;;;;5076161;28;20203;-88
2022/12/31 04:47:34;;;;;;;0.10;0.00;;;17.20;75.10;17.50;96582.00;;;;5076299;28;20646;-88
2022/12/31 04:50:01;;;;;;;0.50;0.10;;;17.20;75.10;17.50;96573.00;;;;5076117;28;20224;-88
2022/12/31 04:52:29;;;;;;;0.10;0.00;;;17.20;75.00;17.50;96577.00;;;;5076150;28;20192;-88
2022/12/31 04:54:56;;;;;;;0.00;0.00;;;17.20;74.80;17.60;96562.00;;;;5076122;28;20599;-88
2022/12/31 04:57:24;;;;;;;0.20;0.03;;;17.20;74.70;17.60;96578.00;;;;5075632;28;20649;-88
2022/12/31 04:59:52;;;;;;;0.77;0.10;;;17.20;74.70;17.60;96575.00;;;;5074849;28;20285;-88
2022/12/31 05:02:20;;;;;;;0.00;0.00;;;17.30;74.70;17.60;96589.00;;;;5074769;28;20197;-88
2022/12/31 05:04:48;;;;;;;0.17;0.00;;;17.30;74.60;17.70;96580.00;;;;5075081;28;20200;-88
2022/12/31 05:07:15;;;;;;;1.03;0.10;;;17.30;74.60;17.70;96589.00;;;;5074776;28;20782;-88
2022/12/31 05:09:43;;;;;;;0.10;0.10;;;17.40;74.60;17.80;96589.00;;;;5074821;28;20750;-88
2022/12/31 05:12:10;;;;;;;0.20;0.10;;;17.40;74.40;17.80;96589.00;;;;5074938;28;20249;-88
2022/12/31 05:14:37;;;;;;;1.23;0.10;;;17.40;74.40;17.80;96590.00;;;;5074569;28;20200;-88
2022/12/31 05:17:06;;;;;;;0.00;0.00;;;17.50;74.40;17.80;96587.00;;;;5075098;28;20254;-88
2022/12/31 05:19:34;;;;;;;0.50;0.20;;;17.50;74.10;17.80;96603.00;;;;5074415;28;20231;-88
2022/12/31 05:24:46;;;;;;;0.40;0.37;;;17.50;73.90;17.90;96606.00;;;;5074900;28;20547;-88
2022/12/31 05:27:13;;;;;;;0.10;0.10;;;17.60;74.00;17.90;96619.00;;;;5074455;28;20245;-88
2022/12/31 05:29:40;;;;;;;0.10;0.10;;;17.60;73.80;18.00;96626.00;;;;5074360;28;20220;-88
2022/12/31 05:32:09;;;;;;;0.10;0.10;;;17.60;73.70;18.00;96615.00;;;;5074506;28;20203;-88
2022/12/31 05:34:36;;;;;;;1.23;0.10;;;17.70;73.50;18.10;96614.00;;;;5074417;28;20636;-88
2022/12/31 05:37:04;;;;;;;0.07;0.07;;;17.70;73.50;18.10;96624.00;;;;5075195;28;20188;-88
2022/12/31 05:39:31;;;;;;;0.20;0.20;;;17.80;73.50;18.20;96627.00;;;;5075140;28;20673;-88
2022/12/31 05:41:59;;;;;;;2.67;0.23;;;17.80;73.30;18.20;96633.00;;;;5075586;28;20200;-88
2022/12/31 05:44:26;;;;;;;0.37;0.30;;;17.80;73.10;18.20;96636.00;;;;5074992;28;20652;-88
2022/12/31 05:46:53;;;;;;;1.10;0.10;;;17.90;73.20;18.30;96623.00;;;;5074887;28;20543;-88
2022/12/31 05:49:22;;;;;;;0.20;0.20;;;17.90;73.10;18.30;96631.00;;;;5074699;28;20224;-88
2022/12/31 05:51:50;;;;;;;0.10;0.10;;;18.00;72.90;18.40;96639.00;;;;5074283;28;20200;-88
2022/12/31 05:54:17;;;;;;;0.10;0.10;;;18.00;72.70;18.40;96631.00;;;;5073803;28;20652;-88
2022/12/31 05:56:44;;;;;;;0.47;0.37;;;18.00;72.60;18.40;96617.00;;;;5073869;28;20208;-88
2022/12/31 05:59:12;;;;;;;0.10;0.10;;;18.10;72.60;18.50;96627.00;;;;5073626;28;20688;-88
2022/12/31 06:01:39;;;;;;;0.70;0.63;;;18.10;72.60;18.50;96626.00;;;;5073910;28;20661;-88
2022/12/31 06:04:07;;;;;;;0.70;0.40;;;18.20;72.60;18.50;96623.00;;;;5073670;28;20192;-88
2022/12/31 06:06:35;;;;;;;0.40;0.40;;;18.20;72.50;18.60;96630.00;;;;5073629;28;20283;-88
2022/12/31 06:09:03;;;;;;;0.67;0.43;;;18.20;72.30;18.60;96635.00;;;;5074026;28;20222;-88
2022/12/31 06:11:31;;;;;;;3.50;0.53;;;18.30;72.30;18.70;96636.00;;;;5074155;28;20188;-88
2022/12/31 06:13:58;;;;;;;0.60;0.60;;;18.30;72.30;18.70;96638.00;;;;5074615;28;20215;-88
2022/12/31 06:16:26;;;;;;;0.30;0.30;;;18.30;72.10;18.70;96644.00;;;;5074146;28;20207;-89
2022/12/31 06:18:53;;;;;;;0.30;0.30;;;18.40;72.00;18.70;96641.00;;;;5074294;28;20310;-88
2022/12/31 06:21:22;;;;;;;0.40;0.33;;;18.40;71.90;18.70;96644.00;;;;5074003;28;20291;-88
2022/12/31 06:23:50;;;;;;;2.10;0.30;;;18.40;71.90;18.70;96653.00;;;;5074849;28;20196;-88
2022/12/31 06:26:18;;;;;;;1.37;0.90;;;18.40;71.70;18.80;96651.00;;;;5074544;28;20214;-88
2022/12/31 06:28:45;;;;;;;1.10;1.00;;;18.40;71.70;18.80;96661.00;;;;5073731;28;20215;-88
2022/12/31 06:31:15;;;;;;;1.50;0.80;;;18.50;71.60;18.80;96654.00;;;;5073797;28;20564;-88
2022/12/31 06:33:42;;;;;;;1.13;0.80;;;18.50;71.60;18.90;96663.00;;;;5073560;28;20204;-88
2022/12/31 06:36:14;;;;;;;0.87;0.77;;;18.50;71.50;18.90;96653.00;;;;5073724;28;20192;-88
2022/12/31 06:38:44;;;;;;;0.77;0.40;;;18.60;71.30;18.90;96653.00;;;;5072797;28;20223;-88
2022/12/31 06:41:15;;;;;;;0.30;0.30;;;18.60;71.30;18.90;96644.00;;;;5072949;28;20196;-88
2022/12/31 06:43:43;;;;;;;0.40;0.23;;;18.60;71.00;18.90;96658.00;;;;5073078;28;20210;-88
2022/12/31 06:46:15;;;;;;;1.53;0.50;;;18.60;71.10;18.90;96656.00;;;;5073096;28;20196;-88
2022/12/31 06:48:43;;;;;;;1.03;0.20;;;18.60;71.00;18.90;96659.00;;;;5073539;28;20711;-88
2022/12/31 06:51:13;;;;;;;5.40;0.60;;;18.60;71.10;18.90;96668.00;;;;5073515;28;20227;-88
2022/12/31 06:53:41;;;;;;;0.20;0.20;;;18.60;70.90;18.90;96663.00;;;;5073807;28;20246;-88
2022/12/31 06:56:16;;;;;;;1.23;0.30;;;18.60;70.80;18.90;96671.00;;;;5073362;28;20207;-88
2022/12/31 06:58:44;;;;;;;0.63;0.30;;;18.60;70.70;18.90;96667.00;;;;5072823;28;20223;-88
2022/12/31 07:01:33;;;;;;;0.20;0.10;;;18.60;70.70;18.90;96660.00;;;;5073351;28;20230;-88
2022/12/31 07:04:29;;;;;;;0.73;0.20;;;18.60;69.80;19.00;96673.00;;;;5073813;28;20184;-89
2022/12/31 07:07:07;;;;;;;2.73;0.40;;;18.60;71.30;19.00;96676.00;;;;5073438;28;20260;-88
2022/12/31 07:09:51;;;;;;;0.20;0.10;;;18.70;70.60;19.00;96679.00;;;;5073469;28;20216;-88
2022/12/31 07:12:41;;;;;;;0.10;0.10;;;18.60;70.50;19.00;96674.00;;;;5073639;28;20196;-88
2022/12/31 07:15:16;;;;;;;0.30;0.20;;;18.70;70.10;18.90;96684.00;;;;5073623;28;20216;-88
2022/12/31 07:17:55;;;;;;;0.10;0.10;;;18.60;70.40;19.00;96692.00;;;;5073778;28;20175;-88
2022/12/31 07:20:23;;;;;;;2.00;0.20;;;18.60;70.30;18.90;96690.00;;;;5073599;28;20651;-88
2022/12/31 07:22:52;;;;;;;0.23;0.10;;;18.60;70.80;18.90;96688.00;;;;5073455;28;20200;-87
2022/12/31 07:25:22;;;;;;;0.80;0.30;;;18.60;70.80;18.90;96686.00;;;;5073321;28;20235;-88
2022/12/31 07:28:11;;;;;;;0.10;0.10;;;18.60;70.70;18.90;96685.00;;;;5073394;28;20668;-88
2022/12/31 07:30:48;;;;;;;31.93;2.00;;;18.60;70.30;18.90;96689.00;;;;5073125;28;20700;-88
2022/12/31 07:33:33;;;;;;;2.33;0.27;;;18.60;71.00;18.90;96700.00;;;;5073914;28;20202;-88
2022/12/31 07:36:18;;;;;;;0.50;0.20;;;18.60;70.80;18.80;96704.00;;;;5073204;28;20257;-88
2022/12/31 07:38:55;;;;;;;0.20;0.20;;;18.50;70.80;18.80;96693.00;;;;5073132;28;20219;-88
2022/12/31 07:41:42;;;;;;;2.77;0.47;;;18.50;70.60;18.70;96702.00;;;;5072997;28;20230;-88
2022/12/31 07:44:31;;;;;;;0.10;0.10;;;18.50;70.50;18.60;96701.00;;;;5072571;28;20272;-88
2022/12/31 07:47:01;;;;;;;1.57;0.23;;;18.40;70.50;18.60;96707.00;;;;5073280;28;20206;-88
2022/12/31 07:49:31;;;;;;;0.53;0.33;;;18.30;70.90;18.50;96717.00;;;;5073044;28;20224;-83
2022/12/31 07:51:59;;;;;;;9.53;0.83;;;18.30;70.90;18.50;96721.00;;;;5071967;28;20246;-82
2022/12/31 07:54:26;;;;;;;8.73;1.10;;;18.20;71.00;18.40;96716.00;;;;5070701;28;20341;-83
2022/12/31 07:56:54;;;;;;;3.40;0.40;;;18.10;71.00;18.40;96723.00;;;;5073231;28;20253;-83
2022/12/31 07:59:44;;;;;;;1.53;0.50;;;18.10;71.20;18.40;96732.00;;;;5077624;28;20247;-84
2022/12/31 08:02:24;;;;;;;5.50;0.80;;;18.00;70.40;18.40;96733.00;;;;5074749;28;20265;-83
2022/12/31 08:05:06;;;;;;;0.47;0.20;;;18.00;70.90;18.40;96740.00;;;;5075989;28;20211;-83
2022/12/31 08:07:45;;;;;;;4.07;0.70;;;18.00;71.00;18.40;96742.00;;;;5075615;28;20199;-83
2022/12/31 08:10:22;;;;;;;0.97;0.30;;;18.00;71.30;18.40;96735.00;;;;5074985;28;20265;-85
2022/12/31 08:12:51;;;;;;;6.37;0.50;;;18.00;71.40;18.40;96748.00;;;;5075615;28;20257;-85
2022/12/31 08:15:21;;;;;;;1.33;0.30;;;17.90;71.80;18.40;96748.00;;;;5075614;28;21134;-84
2022/12/31 08:17:49;;;;;;;0.93;0.40;;;17.90;71.80;18.40;96758.00;;;;5075548;28;20212;-85
2022/12/31 08:20:18;;;;;;;0.63;0.37;;;17.90;72.00;18.40;96749.00;;;;5074404;28;20220;-83
2022/12/31 08:23:12;;;;;;;0.50;0.30;;;17.90;71.90;18.40;96752.00;;;;5077273;28;20638;-83
2022/12/31 08:26:03;;;;;;;1.93;0.27;;;17.90;71.10;18.40;96760.00;;;;5077452;28;20597;-83
2022/12/31 08:28:54;;;;;;;0.57;0.40;;;17.90;71.40;18.50;96760.00;;;;5077847;28;20282;-82
2022/12/31 08:31:32;;;;;;;0.20;0.20;;;18.00;71.80;18.50;96762.00;;;;5077548;28;20196;-84
2022/12/31 08:34:13;;;;;;;0.53;0.53;;;18.00;72.00;18.50;96764.00;;;;5075327;28;20207;-83
2022/12/31 08:36:53;;;;;;;1.27;0.47;;;18.00;71.70;18.50;96763.00;;;;5075865;28;20211;-84
2022/12/31 08:39:41;;;;;;;0.30;0.30;;;18.00;72.10;18.50;96772.00;;;;5077987;28;20591;-84
2022/12/31 08:42:22;;;;;;;16.40;1.23;;;18.00;72.00;18.50;96760.00;;;;5076040;28;20242;-84
2022/12/31 08:45:02;;;;;;;1.90;0.33;;;18.00;72.20;18.50;96762.00;;;;5077124;28;20676;-84
2022/12/31 08:47:44;;;;;;;1.53;0.47;;;18.00;72.00;18.50;96762.00;;;;5076319;28;20228;-84
2022/12/31 08:50:16;;;;;;;2.27;0.87;;;18.00;72.10;18.50;96764.00;;;;5076219;28;20222;-83
2022/12/31 08:52:45;;;;;;;0.20;0.20;;;18.00;72.20;18.50;96766.00;;;;5075986;28;20192;-84
2022/12/31 08:55:16;;;;;;;1.23;0.40;;;18.00;72.20;18.50;96770.00;;;;5077297;28;20200;-83
2022/12/31 08:58:00;;;;;;;7.80;1.00;;;18.00;72.10;18.60;96768.00;;;;5075220;28;20200;-83
2022/12/31 09:00:30;;;;;;;0.30;0.30;;;18.10;72.00;18.60;96772.00;;;;5075794;28;20276;-84
2022/12/31 09:03:29;;;;;;;0.70;0.70;;;18.10;72.50;18.70;96770.00;;;;5075850;28;20740;-84
2022/12/31 09:06:09;;;;;;;15.60;8.03;;;18.20;71.90;18.70;96774.00;;;;5074843;28;20204;-84
2022/12/31 09:08:51;;;;;;;4.97;4.23;;;18.20;72.30;18.80;96769.00;;;;5074195;28;20261;-83
2022/12/31 09:11:28;;;;;;;2.20;2.00;;;18.30;71.90;18.80;96771.00;;;;5073851;28;20196;-83
2022/12/31 09:14:21;;;;;;;1.50;1.40;;;18.30;72.10;18.80;96779.00;;;;5075780;28;20499;-83
2022/12/31 09:16:58;;;;;;;1.23;0.90;;;18.30;72.20;18.90;96786.00;;;;5077134;28;20244;-83
2022/12/31 09:19:27;;;;;;;0.70;0.70;;;18.40;73.00;18.90;96775.00;;;;5076968;28;20340;-86
2022/12/31 09:21:56;;;;;;;0.83;0.83;;;18.40;73.20;18.90;96768.00;;;;5076717;28;20196;-84
2022/12/31 09:24:24;;;;;;;0.90;0.90;;;18.40;73.10;19.00;96775.00;;;;5076394;28;20276;-82
2022/12/31 09:27:05;;;;;;;1.70;1.60;;;18.40;73.10;19.00;96780.00;;;;5074651;28;20212;-84
2022/12/31 09:29:52;;;;;;;2.13;1.07;;;18.50;72.80;19.00;96773.00;;;;5075825;28;20290;-85
2022/12/31 09:32:35;;;;;;;0.80;0.80;;;18.50;72.90;19.00;96765.00;;;;5076284;28;20257;-86
2022/12/31 09:35:14;;;;;;;1.17;0.60;;;18.50;72.90;19.00;96761.00;;;;5076561;28;20645;-83
2022/12/31 09:37:48;;;;;;;0.80;0.50;;;18.50;73.00;19.00;96761.00;;;;5075111;28;20196;-82
2022/12/31 09:40:57;;;;;;;0.60;0.40;;;18.50;72.90;19.00;96764.00;;;;5073700;28;20285;-83
2022/12/31 09:44:13;;;;;;;0.50;0.50;;;18.50;72.50;19.00;96751.00;;;;5074226;28;20243;-82
2022/12/31 09:47:23;;;;;;;1.37;0.63;;;18.50;73.10;19.00;96756.00;;;;5073774;28;20226;-84
2022/12/31 09:50:26;;;;;;;17.60;1.93;;;18.50;73.20;19.00;96758.00;;;;5073964;28;20227;-83
2022/12/31 09:53:37;;;;;;;6.53;1.10;;;18.50;73.80;19.00;96752.00;;;;5073080;28;20200;-83
2022/12/31 09:56:12;;;;;;;3.50;1.17;;;18.50;73.70;19.00;96757.00;;;;5067499;28;20269;-82
2022/12/31 09:58:51;;;;;;;0.40;0.40;;;18.50;74.30;19.00;96755.00;;;;5075322;28;20215;-84
2022/12/31 10:01:42;;;;;;;0.73;0.50;;;18.50;73.40;19.00;96756.00;;;;5073917;28;20233;-84
2022/12/31 10:04:59;;;;;;;0.50;0.50;;;18.50;73.30;19.10;96763.00;;;;5074078;28;20200;-84
2022/12/31 10:07:50;;;;;;;0.50;0.50;;;18.60;73.00;19.20;96768.00;;;;5073672;28;20196;-84
2022/12/31 10:10:26;;;;;;;0.80;0.40;;;18.60;73.40;19.30;96762.00;;;;5075146;28;20216;-83
2022/12/31 10:13:33;;;;;;;0.90;0.37;;;18.70;74.20;19.40;96761.00;;;;5070861;28;20196;-83
2022/12/31 10:16:36;;;;;;;0.40;0.40;;;18.80;73.80;19.40;96767.00;;;;5007817;28;20217;-84
2022/12/31 10:20:07;;;;;;;1.97;1.10;;;18.80;73.30;19.40;96768.00;;;;5068969;28;20273;-83
2022/12/31 10:23:00;;;;;;;0.80;0.80;;;18.90;72.80;19.40;96765.00;;;;5071463;28;20614;-82
2022/12/31 10:25:48;;;;;;;0.40;0.40;;;18.90;73.20;19.50;96763.00;;;;5070853;28;20234;-82
2022/12/31 10:28:32;;;;;;;0.57;0.57;;;18.90;73.30;19.50;96758.00;;;;5070254;28;20266;-80
2022/12/31 10:31:14;;;;;;;0.40;0.30;;;19.00;73.30;19.50;96762.00;;;;5067559;28;20673;-82
2022/12/31 10:34:01;;;;;;;0.33;0.33;;;19.00;72.60;19.50;96757.00;;;;5069321;28;20616;-82
2022/12/31 10:36:39;;;;;;;0.70;0.40;;;19.00;72.70;19.60;96757.00;;;;5070351;28;21145;-82
2022/12/31 10:39:20;;;;;;;1.37;0.50;;;19.00;73.20;19.60;96754.00;;;;5072076;28;20215;-83
2022/12/31 10:42:25;;;;;;;2.47;0.60;;;19.00;72.90;19.60;96750.00;;;;5069221;28;20231;-83
2022/12/31 10:45:24;;;;;;;3.67;0.40;;;19.10;72.30;19.60;96752.00;;;;5069569;28;20531;-80
2022/12/31 10:48:51;;;;;;;3.17;0.47;;;19.10;72.50;19.60;96753.00;;;;5070540;28;20236;-80
2022/12/31 10:52:11;;;;;;;0.30;0.30;;;19.10;72.50;19.60;96756.00;;;;5072003;28;20645;-83
2022/12/31 10:55:48;;;;;;;1.50;0.60;;;19.10;73.10;19.50;96760.00;;;;5071616;28;20695;-82
2022/12/31 10:58:52;;;;;;;0.60;0.60;;;19.10;72.50;19.50;96755.00;;;;5072854;28;20200;-84
2022/12/31 11:01:32;;;;;;;0.80;0.50;;;19.10;73.40;19.60;96764.00;;;;5072747;28;20265;-84
2022/12/31 11:04:58;;;;;;;1.43;1.00;;;19.10;74.00;19.50;96765.00;;;;5072353;28;20218;-84
2022/12/31 11:08:02;;;;;;;9.80;2.00;;;19.10;73.10;19.60;96762.00;;;;5070226;28;20219;-84
2022/12/31 11:11:04;;;;;;;1.47;0.67;;;19.10;73.70;19.60;96757.00;;;;5072253;28;20251;-83
2022/12/31 11:14:15;;;;;;;3.17;0.53;;;19.00;73.50;19.60;96743.00;;;;5074301;28;20204;-84
2022/12/31 11:17:06;;;;;;;1.60;0.50;;;19.00;73.60;19.50;96742.00;;;;5071893;28;20238;-84
2022/12/31 11:19:48;;;;;;;0.77;0.50;;;19.00;73.90;19.60;96743.00;;;;5068175;28;20217;-84
2022/12/31 11:22:50;;;;;;;0.90;0.70;;;19.00;74.20;19.60;96751.00;;;;5068695;28;20255;-84
2022/12/31 11:25:40;;;;;;;0.80;0.80;;;19.00;73.80;19.60;96745.00;;;;5070851;28;20195;-83
2022/12/31 11:28:41;;;;;;;1.20;0.83;;;19.10;73.70;19.70;96748.00;;;;5070049;28;20222;-83
2022/12/31 11:31:37;;;;;;;0.57;0.57;;;19.10;73.80;19.70;96745.00;;;;5071950;28;20226;-84
2022/12/31 11:34:49;;;;;;;1.50;1.00;;;19.10;74.60;19.80;96743.00;;;;5074387;28;20188;-83
2022/12/31 11:37:33;;;;;;;1.40;1.20;;;19.20;74.70;19.80;96732.00;;;;5075154;28;20210;-83
2022/12/31 11:40:21;;;;;;;2.07;1.10;;;19.20;73.90;19.80;96741.00;;;;5072893;28;20318;-83
2022/12/31 11:42:57;;;;;;;1.20;1.10;;;19.20;73.40;19.90;96740.00;;;;5073547;28;20636;-85
2022/12/31 11:45:47;;;;;;;1.83;1.00;;;19.30;73.40;19.90;96744.00;;;;5073855;28;20237;-83